createdAt,value
2019-03-08T00:00:52.933Z,91.00
2019-03-08T00:03:23.623Z,91.00
2019-03-08T00:05:51.186Z,91.10
2019-03-08T00:08:19.735Z,91.10
2019-03-08T00:10:58.092Z,91.20
2019-03-08T00:13:25.684Z,90.90
2019-03-08T00:15:53.267Z,90.60
2019-03-08T00:18:20.931Z,90.60
2019-03-08T00:20:48.445Z,90.10
2019-03-08T00:23:15.925Z,89.30
2019-03-08T00:25:43.717Z,88.40
2019-03-08T00:28:11.557Z,87.90
2019-03-08T00:30:39.074Z,87.90
2019-03-08T00:33:07.744Z,87.80
2019-03-08T00:35:35.223Z,87.60
2019-03-08T00:38:05.024Z,88.00
2019-03-08T00:40:32.489Z,87.60
2019-03-08T00:43:00.229Z,87.50
2019-03-08T00:45:27.642Z,87.50
2019-03-08T00:47:55.163Z,87.80
2019-03-08T00:50:22.500Z,88.00
2019-03-08T00:52:49.993Z,88.00
2019-03-08T00:55:17.707Z,88.60
2019-03-08T00:57:45.171Z,88.70
2019-03-08T01:00:14.825Z,88.80
2019-03-08T01:02:43.434Z,89.00
2019-03-08T01:05:11.466Z,89.00
2019-03-08T01:07:40.221Z,89.20
2019-03-08T01:10:12.147Z,89.60
2019-03-08T01:12:39.840Z,90.00
2019-03-08T01:15:11.091Z,90.20
2019-03-08T01:17:38.960Z,90.30
2019-03-08T01:20:08.529Z,91.40
2019-03-08T01:22:36.171Z,91.00
2019-03-08T01:25:04.622Z,91.00
2019-03-08T01:27:32.105Z,91.20
2019-03-08T01:29:59.433Z,91.40
2019-03-08T01:32:27.005Z,91.50
2019-03-08T01:34:54.697Z,91.50
2019-03-08T01:37:22.190Z,91.60
2019-03-08T01:39:49.766Z,91.40
2019-03-08T01:42:17.113Z,91.70
2019-03-08T01:44:45.117Z,91.70
2019-03-08T01:47:12.607Z,91.70
2019-03-08T01:49:40.234Z,91.60
2019-03-08T01:52:07.787Z,92.00
2019-03-08T01:54:35.219Z,91.90
2019-03-08T01:57:02.984Z,91.80
2019-03-08T01:59:30.545Z,92.00
2019-03-08T02:01:57.898Z,92.00
2019-03-08T02:04:25.485Z,91.90
2019-03-08T02:06:53.147Z,91.90
2019-03-08T02:09:20.645Z,91.90
2019-03-08T02:11:48.126Z,92.40
2019-03-08T02:14:15.677Z,92.10
2019-03-08T02:16:43.284Z,92.00
2019-03-08T02:19:10.734Z,92.10
2019-03-08T02:21:38.177Z,92.20
2019-03-08T02:24:05.689Z,92.10
2019-03-08T02:26:33.392Z,92.10
2019-03-08T02:29:00.772Z,92.10
2019-03-08T02:31:28.534Z,92.10
2019-03-08T02:33:55.985Z,92.40
2019-03-08T02:36:23.451Z,92.60
2019-03-08T02:38:51.104Z,92.70
2019-03-08T02:41:18.706Z,92.50
2019-03-08T02:43:46.055Z,92.40
2019-03-08T02:46:13.514Z,92.20
2019-03-08T02:48:41.116Z,92.40
2019-03-08T02:51:08.604Z,92.00
2019-03-08T02:53:36.859Z,91.90
2019-03-08T02:56:12.448Z,91.90
2019-03-08T02:58:39.981Z,91.70
2019-03-08T03:01:07.410Z,91.60
2019-03-08T03:03:34.766Z,91.80
2019-03-08T03:06:02.226Z,91.70
2019-03-08T03:08:29.711Z,91.50
2019-03-08T03:10:57.162Z,91.30
2019-03-08T03:13:25.378Z,91.10
2019-03-08T03:15:52.732Z,91.00
2019-03-08T03:18:21.457Z,91.10
2019-03-08T03:20:49.078Z,91.00
2019-03-08T03:23:16.418Z,90.90
2019-03-08T03:25:43.909Z,90.90
2019-03-08T03:28:11.376Z,90.70
2019-03-08T03:30:38.883Z,90.40
2019-03-08T03:33:06.258Z,90.20
2019-03-08T03:35:33.650Z,90.10
2019-03-08T03:38:02.941Z,90.00
2019-03-08T03:40:30.713Z,89.60
2019-03-08T03:43:01.857Z,89.30
2019-03-08T03:45:29.441Z,89.20
2019-03-08T03:47:56.765Z,89.00
2019-03-08T03:50:24.520Z,88.80
2019-03-08T03:52:52.024Z,88.80
2019-03-08T03:55:19.667Z,88.30
2019-03-08T03:57:47.076Z,87.80
2019-03-08T04:00:15.716Z,88.10
2019-03-08T04:02:43.540Z,87.50
2019-03-08T04:05:11.523Z,87.90
2019-03-08T04:07:39.134Z,87.40
2019-03-08T04:10:08.216Z,87.20
2019-03-08T04:12:35.733Z,86.60
2019-03-08T04:15:06.183Z,85.80
2019-03-08T04:17:33.893Z,84.80
2019-03-08T04:20:01.927Z,85.30
2019-03-08T04:22:29.666Z,83.90
2019-03-08T04:24:57.023Z,83.10
2019-03-08T04:27:24.581Z,83.80
2019-03-08T04:29:53.024Z,82.70
2019-03-08T04:32:21.021Z,82.70
2019-03-08T04:34:48.478Z,82.70
2019-03-08T04:37:15.884Z,81.60
2019-03-08T04:39:43.568Z,81.70
2019-03-08T04:42:10.935Z,81.30
2019-03-08T04:44:38.419Z,81.00
2019-03-08T04:47:05.989Z,81.00
2019-03-08T04:49:33.425Z,80.90
2019-03-08T04:52:00.899Z,81.20
2019-03-08T04:54:29.554Z,80.80
2019-03-08T04:56:56.957Z,81.70
2019-03-08T04:59:24.317Z,82.90
2019-03-08T05:01:51.703Z,80.80
2019-03-08T05:04:19.249Z,81.20
2019-03-08T05:06:46.559Z,80.90
2019-03-08T05:09:14.191Z,81.10
2019-03-08T05:11:41.594Z,81.10
2019-03-08T05:14:09.098Z,81.00
2019-03-08T05:16:36.436Z,80.80
2019-03-08T05:19:03.864Z,80.90
2019-03-08T05:21:31.309Z,80.70
2019-03-08T05:23:58.647Z,80.90
2019-03-08T05:26:26.020Z,81.60
2019-03-08T05:28:53.427Z,81.10
2019-03-08T05:31:20.876Z,81.00
2019-03-08T05:33:48.199Z,80.90
2019-03-08T05:36:15.746Z,80.80
2019-03-08T05:38:43.170Z,81.30
2019-03-08T05:41:10.475Z,81.10
2019-03-08T05:43:37.866Z,80.80
2019-03-08T05:46:05.185Z,80.40
2019-03-08T05:48:32.712Z,80.30
2019-03-08T05:51:00.100Z,80.20
2019-03-08T05:53:27.425Z,80.00
2019-03-08T05:55:54.739Z,79.60
2019-03-08T05:58:22.108Z,79.60
2019-03-08T06:00:49.459Z,79.40
2019-03-08T06:03:16.777Z,79.30
2019-03-08T06:05:44.227Z,78.90
2019-03-08T06:08:11.623Z,78.40
2019-03-08T06:10:39.786Z,78.80
2019-03-08T06:13:08.346Z,77.90
2019-03-08T06:15:36.296Z,78.50
2019-03-08T06:18:03.903Z,77.60
2019-03-08T06:20:31.465Z,77.40
2019-03-08T06:22:58.907Z,77.20
2019-03-08T06:25:26.239Z,76.40
2019-03-08T06:27:53.628Z,76.20
2019-03-08T06:30:21.216Z,76.00
2019-03-08T06:32:49.006Z,75.10
2019-03-08T06:35:16.336Z,75.50
2019-03-08T06:37:43.873Z,75.40
2019-03-08T06:40:11.420Z,75.50
2019-03-08T06:42:39.221Z,74.60
2019-03-08T06:45:09.001Z,74.10
2019-03-08T06:47:36.627Z,74.30
2019-03-08T06:50:04.836Z,73.50
2019-03-08T06:52:32.242Z,73.50
2019-03-08T06:54:59.715Z,73.90
2019-03-08T06:57:27.124Z,73.30
2019-03-08T06:59:59.372Z,73.70
2019-03-08T07:02:26.897Z,73.60
2019-03-08T07:04:54.441Z,74.20
2019-03-08T07:07:21.746Z,74.20
2019-03-08T07:09:49.045Z,74.10
2019-03-08T07:12:16.372Z,75.00
2019-03-08T07:14:43.876Z,74.60
2019-03-08T07:17:11.300Z,74.00
2019-03-08T07:19:48.079Z,73.60
2019-03-08T07:22:35.045Z,73.20
2019-03-08T07:25:18.367Z,72.60
2019-03-08T07:27:58.834Z,71.50
2019-03-08T07:30:46.226Z,71.30
2019-03-08T07:33:20.344Z,70.60
2019-03-08T07:35:55.451Z,70.60
2019-03-08T07:38:31.404Z,69.70
2019-03-08T07:41:16.834Z,69.10
2019-03-08T07:43:58.883Z,68.40
2019-03-08T07:46:33.778Z,67.20
2019-03-08T07:49:16.918Z,67.10
2019-03-08T07:51:55.358Z,66.00
2019-03-08T07:54:41.597Z,64.50
2019-03-08T07:57:27.363Z,64.20
2019-03-08T08:00:29.938Z,62.70
2019-03-08T08:03:34.773Z,62.60
2019-03-08T08:06:06.721Z,62.30
2019-03-08T08:08:51.621Z,62.10
2019-03-08T08:11:30.246Z,62.10
2019-03-08T08:14:17.276Z,61.70
2019-03-08T08:16:52.717Z,60.40
2019-03-08T08:19:42.806Z,59.60
2019-03-08T08:22:25.657Z,58.90
2019-03-08T08:25:02.987Z,59.10
2019-03-08T08:27:38.836Z,58.70
2019-03-08T08:30:15.233Z,59.00
2019-03-08T08:33:01.780Z,57.40
2019-03-08T08:35:47.362Z,56.20
2019-03-08T08:38:21.336Z,56.20
2019-03-08T08:41:11.373Z,56.60
2019-03-08T08:44:01.376Z,55.70
2019-03-08T08:46:55.015Z,52.90
2019-03-08T08:49:42.188Z,50.80
2019-03-08T08:52:35.709Z,50.20
2019-03-08T08:55:10.850Z,49.20
2019-03-08T08:57:46.792Z,49.20
2019-03-08T09:00:36.881Z,49.80
2019-03-08T09:03:14.034Z,50.30
2019-03-08T09:06:03.774Z,49.70
2019-03-08T09:08:42.756Z,50.00
2019-03-08T09:11:19.038Z,50.40
2019-03-08T09:13:53.802Z,50.40
2019-03-08T09:16:41.685Z,49.40
2019-03-08T09:19:25.003Z,49.10
2019-03-08T09:22:02.288Z,50.00
2019-03-08T09:24:36.160Z,49.50
2019-03-08T09:27:41.537Z,48.30
2019-03-08T09:30:17.147Z,47.90
2019-03-08T09:33:05.119Z,47.30
2019-03-08T09:35:41.530Z,47.00
2019-03-08T09:38:27.310Z,46.60
2019-03-08T09:41:15.217Z,46.00
2019-03-08T09:44:01.268Z,45.40
2019-03-08T09:46:51.028Z,46.00
2019-03-08T09:49:44.288Z,46.90
2019-03-08T09:52:34.552Z,46.90
2019-03-08T09:55:24.388Z,46.50
2019-03-08T09:58:08.844Z,46.60
2019-03-08T10:00:42.908Z,47.60
2019-03-08T10:03:16.704Z,47.10
2019-03-08T10:06:03.756Z,46.60
2019-03-08T10:08:49.385Z,46.80
2019-03-08T10:11:31.416Z,47.30
2019-03-08T10:14:25.295Z,47.60
2019-03-08T10:17:24.254Z,47.50
2019-03-08T10:20:04.133Z,47.00
2019-03-08T10:23:00.527Z,47.60
2019-03-08T10:25:54.669Z,47.30
2019-03-08T10:28:44.615Z,47.20
2019-03-08T10:31:18.734Z,47.10
2019-03-08T10:33:56.957Z,46.30
2019-03-08T10:36:59.925Z,46.40
2019-03-08T10:39:54.302Z,45.50
2019-03-08T10:42:41.476Z,44.90
2019-03-08T10:45:29.102Z,46.30
2019-03-08T10:48:05.873Z,45.10
2019-03-08T10:50:41.943Z,45.30
2019-03-08T10:53:32.818Z,45.50
2019-03-08T10:56:20.057Z,45.00
2019-03-08T10:58:59.939Z,43.70
2019-03-08T11:01:44.113Z,42.90
2019-03-08T11:04:21.657Z,39.40
2019-03-08T11:07:11.394Z,38.60
2019-03-08T11:09:57.265Z,38.60
2019-03-08T11:12:42.948Z,38.90
2019-03-08T11:15:29.243Z,39.60
2019-03-08T11:18:08.733Z,37.80
2019-03-08T11:20:54.334Z,36.20
2019-03-08T11:23:42.632Z,36.00
2019-03-08T11:26:35.451Z,34.30
2019-03-08T11:29:23.170Z,34.00
2019-03-08T11:32:10.322Z,34.80
2019-03-08T11:34:58.216Z,33.70
2019-03-08T11:37:39.841Z,30.60
2019-03-08T11:40:27.486Z,28.60
2019-03-08T11:43:04.735Z,27.90
2019-03-08T11:45:55.769Z,29.30
2019-03-08T11:49:00.755Z,30.80
2019-03-08T11:51:46.012Z,33.00
2019-03-08T11:54:29.733Z,34.60
2019-03-08T11:57:15.182Z,33.70
2019-03-08T11:59:55.485Z,34.50
2019-03-08T12:02:37.590Z,35.50
2019-03-08T12:05:16.363Z,37.00
2019-03-08T12:07:51.281Z,37.60
2019-03-08T12:10:26.921Z,36.00
2019-03-08T12:13:08.087Z,34.90
2019-03-08T12:15:54.921Z,33.20
2019-03-08T12:18:34.334Z,31.30
2019-03-08T12:21:26.049Z,29.50
2019-03-08T12:24:17.007Z,28.80
2019-03-08T12:26:57.410Z,26.20
2019-03-08T12:29:35.079Z,24.70
2019-03-08T12:32:12.178Z,23.20
2019-03-08T12:35:01.951Z,22.70
2019-03-08T12:37:52.855Z,21.90
2019-03-08T12:40:42.800Z,21.90
2019-03-08T12:43:28.202Z,22.50
2019-03-08T12:46:21.121Z,21.20
2019-03-08T12:48:57.918Z,20.90
2019-03-08T12:51:29.687Z,20.70
2019-03-08T12:54:05.264Z,20.70
2019-03-08T12:56:40.537Z,19.90
2019-03-08T12:59:27.346Z,19.90
2019-03-08T13:02:05.597Z,19.90
2019-03-08T13:04:46.798Z,19.70
2019-03-08T13:07:32.459Z,20.00
2019-03-08T13:10:18.393Z,19.90
2019-03-08T13:12:46.081Z,20.00
2019-03-08T13:15:13.990Z,20.60
2019-03-08T13:17:41.319Z,21.00
2019-03-08T13:20:13.866Z,21.30
2019-03-08T13:22:42.220Z,22.70
2019-03-08T13:25:09.950Z,24.30
2019-03-08T13:27:37.887Z,24.50
2019-03-08T13:30:13.332Z,23.40
2019-03-08T13:32:40.673Z,23.10
2019-03-08T13:35:09.403Z,23.40
2019-03-08T13:37:36.854Z,22.70
2019-03-08T13:40:05.343Z,22.60
2019-03-08T13:42:32.691Z,23.20
2019-03-08T13:45:00.053Z,23.80
2019-03-08T13:47:28.358Z,24.00
2019-03-08T13:49:55.992Z,23.70
2019-03-08T13:52:23.366Z,24.30
2019-03-08T13:54:50.740Z,23.80
2019-03-08T13:57:18.615Z,23.80
2019-03-08T13:59:46.298Z,23.10
2019-03-08T14:02:13.865Z,23.00
2019-03-08T14:04:42.139Z,22.60
2019-03-08T14:07:09.719Z,22.10
2019-03-08T14:09:37.836Z,22.10
2019-03-08T14:12:05.358Z,22.40
2019-03-08T14:14:32.714Z,22.60
2019-03-08T14:17:00.530Z,22.50
2019-03-08T14:19:28.566Z,22.50
2019-03-08T14:21:55.967Z,22.30
2019-03-08T14:24:23.397Z,22.20
2019-03-08T14:26:51.734Z,23.10
2019-03-08T14:29:22.437Z,24.10
2019-03-08T14:32:21.313Z,24.40
2019-03-08T14:34:53.573Z,24.70
2019-03-08T14:37:19.852Z,25.10
2019-03-08T14:39:49.108Z,25.40
2019-03-08T14:42:41.512Z,25.90
2019-03-08T14:45:19.105Z,26.20
2019-03-08T14:47:49.450Z,26.50
2019-03-08T14:50:17.384Z,26.30
2019-03-08T14:52:45.456Z,27.00
2019-03-08T14:55:19.114Z,27.70
2019-03-08T14:57:46.303Z,28.20
2019-03-08T15:03:48.815Z,31.10
2019-03-08T15:06:17.078Z,33.10
2019-03-08T15:08:44.729Z,34.40
2019-03-08T15:11:12.634Z,36.10
2019-03-08T15:13:40.651Z,36.80
2019-03-08T15:16:08.376Z,37.70
2019-03-08T15:18:35.967Z,38.60
2019-03-08T15:21:03.429Z,38.80
2019-03-08T15:23:30.862Z,39.20
2019-03-08T15:25:59.025Z,39.80
2019-03-08T15:28:28.127Z,40.40
2019-03-08T15:30:57.617Z,41.10
2019-03-08T15:33:25.958Z,41.50
2019-03-08T15:35:55.314Z,42.20
2019-03-08T15:38:23.274Z,42.90
2019-03-08T15:40:50.878Z,43.00
2019-03-08T15:43:18.309Z,43.60
2019-03-08T15:45:46.176Z,44.30
2019-03-08T15:48:14.520Z,45.20
2019-03-08T15:50:46.873Z,45.00
2019-03-08T15:53:12.956Z,46.20
2019-03-08T15:55:41.561Z,45.80
2019-03-08T15:58:09.218Z,46.10
2019-03-08T16:00:36.635Z,46.30
2019-03-08T16:03:04.312Z,46.60
2019-03-08T16:05:31.713Z,46.80
2019-03-08T16:08:03.711Z,47.50
2019-03-08T16:10:31.703Z,48.50
2019-03-08T16:13:02.698Z,51.90
2019-03-08T16:15:29.358Z,53.60
2019-03-08T16:17:56.914Z,54.50
2019-03-08T16:20:24.401Z,56.00
2019-03-08T16:22:52.237Z,56.20
2019-03-08T16:25:19.755Z,56.50
2019-03-08T16:27:47.275Z,56.60
2019-03-08T16:30:27.809Z,57.50
2019-03-08T16:33:10.994Z,58.10
2019-03-08T16:35:45.341Z,58.20
2019-03-08T16:38:20.983Z,57.40
2019-03-08T16:41:06.351Z,58.00
2019-03-08T16:43:42.123Z,59.40
2019-03-08T16:46:21.297Z,60.10
2019-03-08T16:48:58.587Z,60.70
2019-03-08T16:51:43.413Z,60.80
2019-03-08T16:54:17.466Z,60.80
2019-03-08T16:57:08.170Z,61.00
2019-03-08T16:59:49.040Z,61.60
2019-03-08T17:02:30.560Z,62.10
2019-03-08T17:05:27.141Z,62.50
2019-03-08T17:08:07.947Z,63.20
2019-03-08T17:11:01.019Z,65.40
2019-03-08T17:13:40.539Z,65.70
2019-03-08T17:16:32.165Z,67.60
2019-03-08T17:19:18.277Z,67.90
2019-03-08T17:22:11.496Z,68.80
2019-03-08T17:24:51.943Z,69.40
2019-03-08T17:27:51.122Z,70.40
2019-03-08T17:30:49.671Z,72.10
2019-03-08T17:33:29.461Z,72.10
2019-03-08T17:36:02.410Z,72.80
2019-03-08T17:38:39.023Z,72.70
2019-03-08T17:41:26.310Z,73.10
2019-03-08T17:44:12.500Z,72.90
2019-03-08T17:46:57.338Z,72.70
2019-03-08T17:49:46.199Z,73.00
2019-03-08T17:52:42.698Z,74.00
2019-03-08T17:55:20.591Z,74.10
2019-03-08T17:58:10.305Z,74.30
2019-03-08T18:00:47.428Z,74.00
2019-03-08T18:03:33.063Z,74.30
2019-03-08T18:06:21.200Z,75.20
2019-03-08T18:09:01.941Z,75.10
2019-03-08T18:11:55.007Z,75.00
2019-03-08T18:14:29.402Z,75.70
2019-03-08T18:17:02.992Z,76.10
2019-03-08T18:19:50.309Z,75.90
2019-03-08T18:22:37.319Z,76.20
2019-03-08T18:25:21.779Z,77.00
2019-03-08T18:28:07.405Z,77.20
2019-03-08T18:30:54.000Z,77.10
2019-03-08T18:33:40.076Z,77.30
2019-03-08T18:36:23.091Z,77.90
2019-03-08T18:39:10.680Z,79.00
2019-03-08T18:42:00.044Z,78.80
2019-03-08T18:44:45.700Z,79.00
2019-03-08T18:47:46.154Z,79.20
2019-03-08T18:50:35.704Z,80.00
2019-03-08T18:53:35.004Z,80.30
2019-03-08T18:56:21.049Z,81.10
2019-03-08T18:59:12.284Z,81.80
2019-03-08T19:02:15.434Z,82.10
2019-03-08T19:05:00.931Z,82.90
2019-03-08T19:07:37.970Z,83.60
2019-03-08T19:10:17.575Z,83.20
2019-03-08T19:13:15.481Z,83.30
2019-03-08T19:16:14.963Z,83.10
2019-03-08T19:19:04.837Z,83.50
2019-03-08T19:21:45.583Z,83.80
2019-03-08T19:24:32.588Z,84.00
2019-03-08T19:27:36.018Z,84.20
2019-03-08T19:30:24.271Z,84.00
2019-03-08T19:33:14.430Z,84.40
2019-03-08T19:35:48.467Z,84.60
2019-03-08T19:38:44.416Z,84.80
2019-03-08T19:41:29.971Z,85.70
2019-03-08T19:44:16.989Z,85.70
2019-03-08T19:47:02.516Z,86.10
2019-03-08T19:49:49.380Z,85.10
2019-03-08T19:52:29.583Z,85.40
2019-03-08T19:55:09.246Z,85.80
2019-03-08T19:57:56.363Z,84.90
2019-03-08T20:00:52.489Z,84.70
2019-03-08T20:03:28.884Z,84.90
2019-03-08T20:06:18.989Z,84.60
2019-03-08T20:08:52.365Z,84.50
2019-03-08T20:11:55.538Z,84.00
2019-03-08T20:14:43.394Z,83.60
2019-03-08T20:17:39.388Z,83.40
2019-03-08T20:20:26.790Z,82.80
2019-03-08T20:23:15.174Z,82.70
2019-03-08T20:26:08.203Z,82.10
2019-03-08T20:29:01.825Z,81.80
2019-03-08T20:31:40.237Z,81.80
2019-03-08T20:34:31.620Z,81.10
2019-03-08T20:37:31.106Z,80.90
2019-03-08T20:40:20.603Z,80.30
2019-03-08T20:42:54.827Z,79.70
2019-03-08T20:45:27.715Z,79.60
2019-03-08T20:47:55.447Z,79.10
2019-03-08T20:50:24.319Z,78.40
2019-03-08T20:52:51.819Z,78.20
2019-03-08T20:55:21.149Z,77.90
2019-03-08T20:57:49.799Z,77.70
2019-03-08T21:00:17.842Z,77.00
2019-03-08T21:02:45.673Z,76.50
2019-03-08T21:05:13.298Z,76.90
2019-03-08T21:07:41.943Z,76.00
2019-03-08T21:10:10.000Z,75.60
2019-03-08T21:12:37.886Z,75.20
2019-03-08T21:15:08.999Z,75.00
2019-03-08T21:17:36.834Z,75.80
2019-03-08T21:20:09.397Z,75.30
2019-03-08T21:22:38.877Z,75.30
2019-03-08T21:25:10.739Z,75.10
2019-03-08T21:27:38.486Z,75.20
2019-03-08T21:30:11.034Z,75.30
2019-03-08T21:32:38.734Z,75.20
2019-03-08T21:35:06.724Z,75.10
2019-03-08T21:37:35.626Z,74.90
2019-03-08T21:40:03.732Z,75.30
2019-03-08T21:42:52.738Z,74.50
2019-03-08T21:45:20.555Z,74.20
2019-03-08T21:47:48.137Z,73.90
2019-03-08T21:50:16.048Z,73.30
2019-03-08T21:52:44.091Z,73.40
2019-03-08T21:55:12.062Z,73.30
2019-03-08T21:57:39.654Z,72.70
2019-03-08T22:00:14.544Z,72.10
2019-03-08T22:02:42.844Z,71.10
2019-03-08T22:05:10.722Z,71.70
2019-03-08T22:07:38.384Z,70.70
2019-03-08T22:10:13.349Z,70.10
2019-03-08T22:12:41.135Z,69.60
2019-03-08T22:15:09.286Z,69.20
2019-03-08T22:17:36.995Z,68.60
2019-03-08T22:20:07.689Z,67.90
2019-03-08T22:22:35.006Z,67.70
2019-03-08T22:25:02.589Z,67.90
2019-03-08T22:27:30.362Z,67.70
2019-03-08T22:29:57.853Z,67.90
2019-03-08T22:32:25.414Z,67.90
2019-03-08T22:34:53.651Z,67.80
2019-03-08T22:37:21.145Z,67.90
2019-03-08T22:39:48.806Z,68.30
2019-03-08T22:42:16.331Z,68.50
2019-03-08T22:44:44.038Z,69.10
2019-03-08T22:47:12.091Z,69.30
2019-03-08T22:49:39.759Z,69.40
2019-03-08T22:52:07.412Z,69.20
2019-03-08T22:54:34.922Z,69.30
2019-03-08T22:57:02.477Z,71.10
2019-03-08T22:59:30.264Z,72.00
2019-03-08T23:02:05.546Z,74.30
2019-03-08T23:04:33.083Z,75.00
2019-03-08T23:07:00.700Z,76.40
2019-03-08T23:09:28.736Z,77.00
2019-03-08T23:11:56.309Z,77.50
2019-03-08T23:14:24.104Z,77.80
2019-03-08T23:16:51.996Z,78.20
2019-03-08T23:19:19.682Z,78.60
2019-03-08T23:21:47.144Z,78.90
2019-03-08T23:24:14.768Z,79.30
2019-03-08T23:27:00.252Z,79.40
2019-03-08T23:29:31.333Z,79.90
2019-03-08T23:32:08.588Z,80.60
2019-03-08T23:34:36.112Z,81.00
2019-03-08T23:37:03.718Z,81.80
2019-03-08T23:39:31.094Z,82.00
2019-03-08T23:41:58.457Z,82.40
2019-03-08T23:44:26.037Z,82.30
2019-03-08T23:46:53.480Z,82.80
2019-03-08T23:49:20.968Z,82.50
2019-03-08T23:51:48.338Z,82.40
2019-03-08T23:54:15.746Z,82.50
2019-03-08T23:56:43.568Z,83.10
2019-03-08T23:59:11.109Z,83.70
